メインページ
METAR-TAF:

METAR-TAF

空港 :

Comox, ブリティッシュコロンビア州, カナダ

緯度: 49-43N, 経度: 124-54W, 海抜: 24m

現時点の気象観測

当レポートは57分前の01:00(UTC)に作成
西の風 4kt
気温 6°C
湿度 100%
気圧 1014 hPa
視程: 32.2km
高度2500ftの雲はほとんどない
高度25000ftの雲はほとんどない

METAR: CYQQ 210100Z 28004KT 20SM FEW025 FEW250 06/06 A2994 RMK SC1CI2 SLP140

時間: 17:57 (01:57 UTC)

予報

当レポートは2時間18分前の23:39(UTC)に作成
予報は21日の 00時(UTC)から 21日の 24時(UTC)まで有効
北/北西の風 8kt
視程: 10km
高度2500ftの雲はほとんどない
高度25000ftの雲は散在している
21日の 1200時(UTC)から
北西の風 5kt
視程: 10km
高度3000ftの千切れ雲あり
21日の 12時(UTC)から 21日の 15時(UTC)まで一時的に
高度2000ftの千切れ雲あり
21日の 16時(UTC)から 21日の 18時(UTC)まで徐々に
変向風 3kt
21日の 2100時(UTC)から
変向風 3kt
視程: 10km
高度3000ftの千切れ雲あり
21日の 21時(UTC)から 21日の 24時(UTC)まで一時的に
高度3000ftの雲は散在している

TAF: CYQQ 202339Z 2100/2124 33008KT P6SM FEW025 SCT250 FM211200 32005KT P6SM BKN030 TEMPO 2112/2115 BKN020 BECMG 2116/2118 VRB03KT FM212100 VRB03KT P6SM BKN030 TEMPO 2121/2124 SCT030 RMK NXT FCST BY 210600Z

4,000以上の空港の気象観測と天気予報(METAR報とTAF報)

利用可能な観測所は地図上に黄色い丸と赤い丸で示す。

丸の上にカーソルを重ねると観測所名を参照できる。

次にクリックすると気象観測と天気予報を参照できる。

マップの切り替え:黒色「×」印の緑ボタンをクリックして拡大、「-」印の緑ボタンをクリックして縮小、緑色の三角印をクリックして隣りの地図に切り替え


METAR-TAF: